Loop, Texas
Current Conditions -  °F | °C
As of 8:35 AM on Friday 24 Oct 2014 (Local Time) from KGNC Reporting Station
Haze Haze  
Wind Chill: 56°   Ceiling: Unl
Heat Index: 56°   Visibility: 4mi
Dew Point: 56°   Wind: 6mph
Humidity: 99%   Direction: 270°W
Pressure: 30.19"   Gusts: NA
Location:  32.92°N, 102.42°W
Report Text: KGNC 241335Z AUTO 27005KT 4SM BR CLR 14/13 A3019 RMK AO2 T01350133
Loading
Personal Weather Stations






























Interactive Weather Map
Tropical Storm Tracking
New forecast layout! Learn more

10-Day Weather Forecast

Advertisements
Track Severe Weather on mobile